Saturday, September 5, 2015, 3:42 AM EDT

KGED, Georgetown Sussex Co Airport

Location: Georgetown, DE, United States Lat: 38.683
Local Time: 3:42 AM EDT ( 7:42 GMT) Lon: -75.367
Time Zone: US/Eastern Elev: 52 ft

Show me the last for .
Show Decoded

2015-09-05 02:54 METAR KGED 050654Z AUTO 06013G17KT 10SM FEW014 SCT027 OVC037 23/21 A3014 RMK AO2
                 SLP205 T02330206 =
2015-09-05 01:54 METAR KGED 050554Z AUTO 06009KT 10SM BKN014 BKN019 OVC025 24/21 A3014 RMK AO2
                 SLP205 T02390211 10250 20228 55003 =
2015-09-05 01:50 METAR KGED 050550Z AUTO 06010KT 10SM BKN014 BKN021 OVC028 24/21 A3014 RMK AO2 =
2015-09-05 01:29 METAR KGED 050529Z AUTO 06010KT 9SM FEW014 SCT020 BKN029 23/21 A3014 RMK AO2
                 T02330211 =
2015-09-05 01:09 METAR KGED 050509Z AUTO 06008KT 9SM SCT029 23/21 A3014 RMK AO2 T02280211 =
2015-09-05 00:54 METAR KGED 050454Z AUTO 06008KT 9SM FEW021 BKN029 23/21 A3014 RMK AO2 SLP205
                 T02330211 403220200 =
2015-09-05 00:36 METAR KGED 050436Z AUTO 06010KT 8SM FEW015 SCT024 BKN029 23/21 A3014 RMK AO2
                 T02330211 =
2015-09-04 23:54 METAR KGED 050354Z AUTO 06007KT 8SM CLR 23/21 A3015 RMK AO2 SLP208 T02330211 =
2015-09-04 22:54 METAR KGED 050254Z AUTO 06008KT 8SM FEW024 24/21 A3014 RMK AO2 SLP205 T02390211
                 51010 =
2015-09-04 22:51 METAR KGED 050251Z AUTO 06007KT 8SM FEW018 FEW024 24/21 A3014 RMK AO2 =
2015-09-04 22:23 METAR KGED 050223Z AUTO 06007KT 8SM FEW015 FEW021 BKN027 24/21 A3013 RMK AO2
                 T02390211 =
2015-09-04 21:54 METAR KGED 050154Z AUTO 06007KT 7SM FEW015 24/21 A3012 RMK AO2 SLP199 T02390211
                 =
2015-09-04 21:14 METAR KGED 050114Z AUTO 07010KT 7SM FEW014 SCT026 24/22 A3011 RMK AO2 T02390217
                 =
2015-09-04 19:54 METAR KGED 042354Z AUTO 07008G17KT 7SM BKN014 OVC019 25/22 A3009 RMK AO2 SLP188
                 60000 T02500222 10322 20250 51014 =
2015-09-04 19:34 METAR KGED 042334Z AUTO 07011KT 7SM BKN016 OVC022 25/22 A3008 RMK AO2 T02500222
                 =
2015-09-04 19:08 METAR KGED 042308Z AUTO 07011KT 6SM HZ BKN014 OVC023 26/22 A3008 RMK AO2
                 T02560222 =
2015-09-04 18:54 METAR KGED 042254Z AUTO 08012KT 6SM HZ SCT014 BKN023 26/22 A3007 RMK AO2 SLP182
                 T02560222 =
2015-09-04 18:47 METAR KGED 042247Z AUTO 07013G20KT 7SM SCT019 BKN024 26/22 A3007 RMK AO2
                 T02610222 =
2015-09-04 18:10 METAR KGED 042210Z AUTO 07010KT 8SM FEW020 SCT027 27/22 A3007 RMK AO2 T02670217
                 =
2015-09-04 17:54 METAR KGED 042154Z AUTO 07012KT 8SM BKN020 BKN027 27/22 A3007 RMK AO2 SLP180
                 T02720217 =
2015-09-04 17:37 METAR KGED 042137Z AUTO 08012KT 8SM BKN020 28/22 A3006 RMK AO2 T02780217 =
2015-09-04 16:54 METAR KGED 042054Z AUTO 10013KT 8SM FEW025 28/21 A3005 RMK AO2 SLP173 60000
                 T02830211 53004 =
2015-09-04 15:54 METAR KGED 041954Z AUTO 08012KT 9SM CLR 29/20 A3004 RMK AO2 SLP170 T02940200 =
2015-09-04 14:54 METAR KGED 041854Z AUTO 08010KT 9SM CLR 31/17 A3003 RMK AO2 RAB1755E04 SLP168
                 P0000 T03060172 =
2015-09-04 13:54 METAR KGED 041754Z AUTO 06009KT 10SM CLR 32/17 A3003 RMK AO2 SLP169 T03220172
                 10322 20233 50005 =
2015-09-04 12:54 METAR KGED 041654Z AUTO 10010G17KT 10SM CLR 31/17 A3004 RMK AO2 SLP170 T03110172
                 =
2015-09-04 11:54 METAR KGED 041554Z AUTO 09007KT 10SM CLR 31/18 A3004 RMK AO2 SLP170 T03110183 =
2015-09-04 09:54 METAR KGED 041354Z AUTO 06008KT 7SM CLR 29/21 A3000 RMK AO2 SLP157 T02890211 =
2015-09-04 08:54 METAR KGED 041254Z AUTO 08008KT 5SM HZ CLR 26/22 A2999 RMK AO2 SLP154 T02610222
                 =
2015-09-04 07:54 METAR KGED 041154Z AUTO 00000KT 3SM BR CLR 23/21 A2998 RMK AO2 SLP150 T02280206
                 10228 20200 53023 =
2015-09-04 07:12 METAR KGED 041112Z AUTO 00000KT 4SM BR CLR 21/19 A2996 RMK AO2 T02060194 =
2015-09-04 06:54 METAR KGED 041054Z AUTO 00000KT 2 1/2SM BR CLR 21/19 A2995 RMK AO2 SLP140
                 T02060194 =
2015-09-04 06:45 METAR KGED 041045Z AUTO 00000KT 2 1/2SM BR CLR 20/19 A2994 RMK AO2 T02000194 =
2015-09-04 05:54 METAR KGED 040954Z AUTO 00000KT 4SM BR FEW060 21/19 A2993 RMK AO2 SLP133
                 T02060194 =
2015-09-04 04:54 METAR KGED 040854Z AUTO 00000KT 4SM BR CLR 21/19 A2991 RMK AO2 SLP127 T02060194
                 53005 =
2015-09-04 03:54 METAR KGED 040754Z AUTO 00000KT 5SM BR CLR 21/20 A2990 RMK AO2 SLP123 T02110200
                 =

Support USWX by starting your Amazon purchase here.